sensor_id;sensor_type;location;lat;lon;timestamp;P1;durP1;ratioP1;P2;durP2;ratioP2
15151;SDS011;7676;50.900;6.234;2022-12-01T00:03:30;48.80;;;37.53;;
15151;SDS011;7676;50.900;6.234;2022-12-01T00:08:33;55.20;;;38.83;;
15151;SDS011;7676;50.900;6.234;2022-12-01T00:13:36;53.77;;;39.70;;
15151;SDS011;7676;50.900;6.234;2022-12-01T00:18:39;55.23;;;37.97;;
15151;SDS011;7676;50.900;6.234;2022-12-01T00:23:42;56.50;;;39.20;;
15151;SDS011;7676;50.900;6.234;2022-12-01T00:28:53;52.50;;;37.73;;
15151;SDS011;7676;50.900;6.234;2022-12-01T00:33:59;51.07;;;35.93;;
15151;SDS011;7676;50.900;6.234;2022-12-01T00:39:07;53.77;;;38.03;;
15151;SDS011;7676;50.900;6.234;2022-12-01T00:44:10;50.77;;;39.13;;
15151;SDS011;7676;50.900;6.234;2022-12-01T00:49:13;53.03;;;38.90;;
15151;SDS011;7676;50.900;6.234;2022-12-01T00:54:16;54.70;;;39.27;;
15151;SDS011;7676;50.900;6.234;2022-12-01T00:59:19;53.07;;;39.17;;
15151;SDS011;7676;50.900;6.234;2022-12-01T01:04:21;57.87;;;39.47;;
15151;SDS011;7676;50.900;6.234;2022-12-01T01:09:24;59.30;;;39.60;;
15151;SDS011;7676;50.900;6.234;2022-12-01T01:14:26;53.97;;;37.80;;
15151;SDS011;7676;50.900;6.234;2022-12-01T01:19:29;56.13;;;38.17;;
15151;SDS011;7676;50.900;6.234;2022-12-01T01:24:32;57.07;;;39.27;;
15151;SDS011;7676;50.900;6.234;2022-12-01T01:29:34;53.97;;;39.50;;
15151;SDS011;7676;50.900;6.234;2022-12-01T01:34:37;55.03;;;42.10;;
15151;SDS011;7676;50.900;6.234;2022-12-01T01:39:40;53.97;;;40.13;;
15151;SDS011;7676;50.900;6.234;2022-12-01T01:44:53;52.70;;;38.33;;
15151;SDS011;7676;50.900;6.234;2022-12-01T01:50:01;56.00;;;40.60;;
15151;SDS011;7676;50.900;6.234;2022-12-01T01:55:07;54.87;;;39.57;;
15151;SDS011;7676;50.900;6.234;2022-12-01T02:00:11;54.23;;;40.83;;
15151;SDS011;7676;50.900;6.234;2022-12-01T02:05:21;63.03;;;44.47;;
15151;SDS011;7676;50.900;6.234;2022-12-01T02:10:46;64.40;;;43.20;;
15151;SDS011;7676;50.900;6.234;2022-12-01T02:21:18;63.17;;;43.53;;
15151;SDS011;7676;50.900;6.234;2022-12-01T02:26:38;65.10;;;43.07;;
15151;SDS011;7676;50.900;6.234;2022-12-01T02:37:00;65.40;;;43.83;;
15151;SDS011;7676;50.900;6.234;2022-12-01T02:42:10;68.57;;;45.03;;
15151;SDS011;7676;50.900;6.234;2022-12-01T02:47:38;74.20;;;45.73;;
15151;SDS011;7676;50.900;6.234;2022-12-01T02:52:42;71.80;;;47.37;;
15151;SDS011;7676;50.900;6.234;2022-12-01T02:57:46;75.37;;;46.87;;
15151;SDS011;7676;50.900;6.234;2022-12-01T03:08:32;81.50;;;48.00;;
15151;SDS011;7676;50.900;6.234;2022-12-01T03:13:50;86.53;;;49.17;;
15151;SDS011;7676;50.900;6.234;2022-12-01T03:19:17;87.60;;;47.43;;
15151;SDS011;7676;50.900;6.234;2022-12-01T03:24:24;90.37;;;49.20;;
15151;SDS011;7676;50.900;6.234;2022-12-01T03:34:51;98.37;;;50.67;;
15151;SDS011;7676;50.900;6.234;2022-12-01T03:39:59;95.20;;;50.10;;
15151;SDS011;7676;50.900;6.234;2022-12-01T03:45:08;109.23;;;53.40;;
15151;SDS011;7676;50.900;6.234;2022-12-01T03:50:16;123.10;;;55.90;;
15151;SDS011;7676;50.900;6.234;2022-12-01T03:55:21;123.90;;;55.13;;
15151;SDS011;7676;50.900;6.234;2022-12-01T04:00:29;113.00;;;52.13;;
15151;SDS011;7676;50.900;6.234;2022-12-01T04:05:33;102.07;;;53.67;;
15151;SDS011;7676;50.900;6.234;2022-12-01T04:10:36;113.83;;;56.03;;
15151;SDS011;7676;50.900;6.234;2022-12-01T04:15:38;110.17;;;55.37;;
15151;SDS011;7676;50.900;6.234;2022-12-01T04:20:44;99.83;;;52.77;;
15151;SDS011;7676;50.900;6.234;2022-12-01T04:25:47;103.17;;;52.47;;
15151;SDS011;7676;50.900;6.234;2022-12-01T04:30:49;109.63;;;52.73;;
15151;SDS011;7676;50.900;6.234;2022-12-01T04:35:58;106.33;;;54.90;;
15151;SDS011;7676;50.900;6.234;2022-12-01T04:41:11;112.03;;;55.77;;
15151;SDS011;7676;50.900;6.234;2022-12-01T04:46:14;105.50;;;54.67;;
15151;SDS011;7676;50.900;6.234;2022-12-01T04:51:17;102.80;;;53.07;;
15151;SDS011;7676;50.900;6.234;2022-12-01T04:56:23;112.63;;;55.17;;
15151;SDS011;7676;50.900;6.234;2022-12-01T05:01:25;105.53;;;54.20;;
15151;SDS011;7676;50.900;6.234;2022-12-01T05:06:28;119.03;;;54.83;;
15151;SDS011;7676;50.900;6.234;2022-12-01T05:11:31;112.90;;;54.03;;
15151;SDS011;7676;50.900;6.234;2022-12-01T05:16:34;111.93;;;56.37;;
15151;SDS011;7676;50.900;6.234;2022-12-01T05:21:37;116.50;;;60.90;;
15151;SDS011;7676;50.900;6.234;2022-12-01T05:26:41;126.47;;;68.70;;
15151;SDS011;7676;50.900;6.234;2022-12-01T05:31:45;126.57;;;61.47;;
15151;SDS011;7676;50.900;6.234;2022-12-01T05:36:48;119.50;;;63.60;;
15151;SDS011;7676;50.900;6.234;2022-12-01T05:41:50;120.37;;;60.07;;
15151;SDS011;7676;50.900;6.234;2022-12-01T05:46:53;142.77;;;78.20;;
15151;SDS011;7676;50.900;6.234;2022-12-01T05:51:56;148.50;;;91.50;;
15151;SDS011;7676;50.900;6.234;2022-12-01T05:56:58;105.23;;;59.40;;
15151;SDS011;7676;50.900;6.234;2022-12-01T06:02:01;110.40;;;57.33;;
15151;SDS011;7676;50.900;6.234;2022-12-01T06:07:03;104.53;;;54.83;;
15151;SDS011;7676;50.900;6.234;2022-12-01T06:12:06;93.97;;;53.47;;
15151;SDS011;7676;50.900;6.234;2022-12-01T06:17:08;86.03;;;51.53;;
15151;SDS011;7676;50.900;6.234;2022-12-01T06:22:12;84.90;;;50.77;;
15151;SDS011;7676;50.900;6.234;2022-12-01T06:27:14;83.63;;;51.47;;
15151;SDS011;7676;50.900;6.234;2022-12-01T06:32:17;70.43;;;47.60;;
15151;SDS011;7676;50.900;6.234;2022-12-01T06:37:20;72.50;;;46.73;;
15151;SDS011;7676;50.900;6.234;2022-12-01T06:42:22;70.93;;;51.07;;
15151;SDS011;7676;50.900;6.234;2022-12-01T06:47:25;65.60;;;47.33;;
15151;SDS011;7676;50.900;6.234;2022-12-01T06:52:28;63.50;;;46.00;;
15151;SDS011;7676;50.900;6.234;2022-12-01T06:57:30;62.50;;;46.63;;
15151;SDS011;7676;50.900;6.234;2022-12-01T07:02:34;61.93;;;45.57;;
15151;SDS011;7676;50.900;6.234;2022-12-01T07:07:37;64.80;;;46.73;;
15151;SDS011;7676;50.900;6.234;2022-12-01T07:12:41;61.40;;;46.07;;
15151;SDS011;7676;50.900;6.234;2022-12-01T07:17:44;61.63;;;44.93;;
15151;SDS011;7676;50.900;6.234;2022-12-01T07:22:46;63.23;;;48.97;;
15151;SDS011;7676;50.900;6.234;2022-12-01T07:27:49;86.87;;;67.27;;
15151;SDS011;7676;50.900;6.234;2022-12-01T07:32:51;66.17;;;44.90;;
15151;SDS011;7676;50.900;6.234;2022-12-01T07:37:54;60.40;;;44.93;;
15151;SDS011;7676;50.900;6.234;2022-12-01T07:42:57;58.67;;;43.77;;
15151;SDS011;7676;50.900;6.234;2022-12-01T07:48:00;63.23;;;43.83;;
15151;SDS011;7676;50.900;6.234;2022-12-01T07:53:03;58.97;;;43.03;;
15151;SDS011;7676;50.900;6.234;2022-12-01T07:58:05;65.23;;;44.60;;
15151;SDS011;7676;50.900;6.234;2022-12-01T08:03:08;65.73;;;44.27;;
15151;SDS011;7676;50.900;6.234;2022-12-01T08:08:11;61.07;;;42.23;;
15151;SDS011;7676;50.900;6.234;2022-12-01T08:13:15;66.67;;;43.03;;
15151;SDS011;7676;50.900;6.234;2022-12-01T08:18:18;67.27;;;42.83;;
15151;SDS011;7676;50.900;6.234;2022-12-01T08:23:21;67.47;;;47.90;;
15151;SDS011;7676;50.900;6.234;2022-12-01T08:28:23;65.10;;;42.17;;
15151;SDS011;7676;50.900;6.234;2022-12-01T08:33:27;64.50;;;42.27;;
15151;SDS011;7676;50.900;6.234;2022-12-01T08:38:30;60.60;;;40.60;;
15151;SDS011;7676;50.900;6.234;2022-12-01T08:43:33;58.43;;;39.93;;
15151;SDS011;7676;50.900;6.234;2022-12-01T08:49:01;57.07;;;38.27;;
15151;SDS011;7676;50.900;6.234;2022-12-01T08:54:05;58.13;;;38.63;;
15151;SDS011;7676;50.900;6.234;2022-12-01T08:59:08;52.20;;;36.27;;
15151;SDS011;7676;50.900;6.234;2022-12-01T09:04:10;55.27;;;37.50;;
15151;SDS011;7676;50.900;6.234;2022-12-01T09:09:17;53.83;;;38.37;;
15151;SDS011;7676;50.900;6.234;2022-12-01T09:14:27;58.90;;;40.50;;
15151;SDS011;7676;50.900;6.234;2022-12-01T09:19:30;57.83;;;39.60;;
15151;SDS011;7676;50.900;6.234;2022-12-01T09:24:33;54.17;;;37.80;;
15151;SDS011;7676;50.900;6.234;2022-12-01T09:29:36;55.87;;;38.87;;
15151;SDS011;7676;50.900;6.234;2022-12-01T09:34:39;55.43;;;38.13;;
15151;SDS011;7676;50.900;6.234;2022-12-01T09:39:42;53.97;;;38.97;;
15151;SDS011;7676;50.900;6.234;2022-12-01T09:44:46;52.63;;;39.33;;
15151;SDS011;7676;50.900;6.234;2022-12-01T09:50:04;54.47;;;39.17;;
15151;SDS011;7676;50.900;6.234;2022-12-01T09:55:12;51.83;;;38.97;;
15151;SDS011;7676;50.900;6.234;2022-12-01T10:00:20;58.43;;;39.97;;
15151;SDS011;7676;50.900;6.234;2022-12-01T10:05:25;57.27;;;39.87;;
15151;SDS011;7676;50.900;6.234;2022-12-01T10:10:41;59.23;;;39.30;;
15151;SDS011;7676;50.900;6.234;2022-12-01T10:32:04;65.27;;;43.47;;
15151;SDS011;7676;50.900;6.234;2022-12-01T10:37:18;69.30;;;44.20;;
15151;SDS011;7676;50.900;6.234;2022-12-01T10:47:28;83.17;;;49.57;;
15151;SDS011;7676;50.900;6.234;2022-12-01T10:57:36;97.13;;;55.30;;
15151;SDS011;7676;50.900;6.234;2022-12-01T11:02:39;95.77;;;58.73;;
15151;SDS011;7676;50.900;6.234;2022-12-01T11:07:45;92.83;;;56.17;;
15151;SDS011;7676;50.900;6.234;2022-12-01T11:18:01;86.90;;;54.53;;
15151;SDS011;7676;50.900;6.234;2022-12-01T11:28:15;92.40;;;55.67;;
15151;SDS011;7676;50.900;6.234;2022-12-01T11:33:21;100.27;;;57.97;;
15151;SDS011;7676;50.900;6.234;2022-12-01T11:38:28;93.47;;;56.63;;
15151;SDS011;7676;50.900;6.234;2022-12-01T11:43:35;101.77;;;56.33;;
15151;SDS011;7676;50.900;6.234;2022-12-01T11:48:43;99.40;;;58.40;;
15151;SDS011;7676;50.900;6.234;2022-12-01T11:59:22;96.77;;;60.57;;
15151;SDS011;7676;50.900;6.234;2022-12-01T12:09:58;93.33;;;59.87;;
15151;SDS011;7676;50.900;6.234;2022-12-01T12:15:21;101.70;;;61.50;;
15151;SDS011;7676;50.900;6.234;2022-12-01T12:20:35;98.17;;;61.40;;
15151;SDS011;7676;50.900;6.234;2022-12-01T12:26:08;103.43;;;61.33;;
15151;SDS011;7676;50.900;6.234;2022-12-01T12:53:12;85.90;;;57.67;;
15151;SDS011;7676;50.900;6.234;2022-12-01T13:09:38;92.77;;;60.07;;
15151;SDS011;7676;50.900;6.234;2022-12-01T13:14:50;69.50;;;51.10;;
15151;SDS011;7676;50.900;6.234;2022-12-01T13:20:03;70.43;;;54.63;;
15151;SDS011;7676;50.900;6.234;2022-12-01T13:25:07;72.43;;;52.20;;
15151;SDS011;7676;50.900;6.234;2022-12-01T13:30:23;62.67;;;47.43;;
15151;SDS011;7676;50.900;6.234;2022-12-01T13:41:19;54.43;;;41.30;;
15151;SDS011;7676;50.900;6.234;2022-12-01T13:57:24;49.60;;;38.70;;
15151;SDS011;7676;50.900;6.234;2022-12-01T14:02:29;44.43;;;34.23;;
15151;SDS011;7676;50.900;6.234;2022-12-01T14:07:34;38.40;;;30.30;;
15151;SDS011;7676;50.900;6.234;2022-12-01T14:12:38;40.37;;;30.80;;
15151;SDS011;7676;50.900;6.234;2022-12-01T14:17:45;34.20;;;28.03;;
15151;SDS011;7676;50.900;6.234;2022-12-01T14:23:10;33.70;;;29.87;;
15151;SDS011;7676;50.900;6.234;2022-12-01T14:39:12;39.87;;;32.20;;
15151;SDS011;7676;50.900;6.234;2022-12-01T14:49:37;37.33;;;31.03;;
15151;SDS011;7676;50.900;6.234;2022-12-01T14:54:56;37.73;;;31.70;;
15151;SDS011;7676;50.900;6.234;2022-12-01T15:00:06;39.30;;;32.47;;
15151;SDS011;7676;50.900;6.234;2022-12-01T15:05:21;38.05;;;31.73;;
15151;SDS011;7676;50.900;6.234;2022-12-01T15:10:32;35.87;;;26.03;;
15151;SDS011;7676;50.900;6.234;2022-12-01T15:15:48;34.00;;;26.43;;
15151;SDS011;7676;50.900;6.234;2022-12-01T15:20:58;37.73;;;29.13;;
15151;SDS011;7676;50.900;6.234;2022-12-01T15:26:13;39.60;;;31.73;;
15151;SDS011;7676;50.900;6.234;2022-12-01T15:31:20;37.00;;;30.97;;
15151;SDS011;7676;50.900;6.234;2022-12-01T15:36:23;45.37;;;35.10;;
15151;SDS011;7676;50.900;6.234;2022-12-01T15:41:26;41.53;;;35.07;;
15151;SDS011;7676;50.900;6.234;2022-12-01T15:46:31;51.93;;;41.50;;
15151;SDS011;7676;50.900;6.234;2022-12-01T15:51:38;46.07;;;39.43;;
15151;SDS011;7676;50.900;6.234;2022-12-01T15:56:40;48.73;;;41.57;;
15151;SDS011;7676;50.900;6.234;2022-12-01T16:01:43;46.27;;;39.00;;
15151;SDS011;7676;50.900;6.234;2022-12-01T16:06:57;49.67;;;40.70;;
15151;SDS011;7676;50.900;6.234;2022-12-01T16:12:03;52.47;;;44.00;;
15151;SDS011;7676;50.900;6.234;2022-12-01T16:17:08;54.03;;;42.60;;
15151;SDS011;7676;50.900;6.234;2022-12-01T16:22:13;53.53;;;43.67;;
15151;SDS011;7676;50.900;6.234;2022-12-01T16:27:20;52.10;;;44.73;;
15151;SDS011;7676;50.900;6.234;2022-12-01T16:32:32;52.93;;;43.43;;
15151;SDS011;7676;50.900;6.234;2022-12-01T16:37:39;54.43;;;44.73;;
15151;SDS011;7676;50.900;6.234;2022-12-01T16:42:42;53.37;;;46.47;;
15151;SDS011;7676;50.900;6.234;2022-12-01T16:47:46;63.23;;;52.23;;
15151;SDS011;7676;50.900;6.234;2022-12-01T16:52:49;58.73;;;49.17;;
15151;SDS011;7676;50.900;6.234;2022-12-01T16:57:52;59.57;;;48.93;;
15151;SDS011;7676;50.900;6.234;2022-12-01T17:02:56;59.97;;;49.80;;
15151;SDS011;7676;50.900;6.234;2022-12-01T17:07:59;57.50;;;44.83;;
15151;SDS011;7676;50.900;6.234;2022-12-01T17:13:02;57.03;;;45.37;;
15151;SDS011;7676;50.900;6.234;2022-12-01T17:18:04;62.03;;;48.10;;
15151;SDS011;7676;50.900;6.234;2022-12-01T17:23:07;57.17;;;45.83;;
15151;SDS011;7676;50.900;6.234;2022-12-01T17:28:11;63.33;;;48.40;;
15151;SDS011;7676;50.900;6.234;2022-12-01T17:33:13;58.67;;;44.57;;
15151;SDS011;7676;50.900;6.234;2022-12-01T17:38:16;56.03;;;43.37;;
15151;SDS011;7676;50.900;6.234;2022-12-01T17:43:21;59.17;;;44.87;;
15151;SDS011;7676;50.900;6.234;2022-12-01T17:48:24;57.40;;;45.20;;
15151;SDS011;7676;50.900;6.234;2022-12-01T17:53:30;55.50;;;43.20;;
15151;SDS011;7676;50.900;6.234;2022-12-01T17:58:34;55.77;;;41.33;;
15151;SDS011;7676;50.900;6.234;2022-12-01T18:03:38;55.47;;;42.00;;
15151;SDS011;7676;50.900;6.234;2022-12-01T18:08:41;59.03;;;43.37;;
15151;SDS011;7676;50.900;6.234;2022-12-01T18:13:46;57.73;;;43.20;;
15151;SDS011;7676;50.900;6.234;2022-12-01T18:18:50;61.40;;;42.87;;
15151;SDS011;7676;50.900;6.234;2022-12-01T18:23:55;61.30;;;44.93;;
15151;SDS011;7676;50.900;6.234;2022-12-01T18:29:01;63.37;;;44.77;;
15151;SDS011;7676;50.900;6.234;2022-12-01T18:34:06;60.87;;;43.90;;
15151;SDS011;7676;50.900;6.234;2022-12-01T18:39:10;65.10;;;44.47;;
15151;SDS011;7676;50.900;6.234;2022-12-01T18:44:12;57.47;;;38.93;;
15151;SDS011;7676;50.900;6.234;2022-12-01T18:49:15;64.10;;;45.63;;
15151;SDS011;7676;50.900;6.234;2022-12-01T18:54:18;70.27;;;51.43;;
15151;SDS011;7676;50.900;6.234;2022-12-01T18:59:23;67.23;;;49.37;;
15151;SDS011;7676;50.900;6.234;2022-12-01T19:04:27;72.47;;;52.17;;
15151;SDS011;7676;50.900;6.234;2022-12-01T19:09:30;72.17;;;51.40;;
15151;SDS011;7676;50.900;6.234;2022-12-01T19:14:33;74.37;;;53.10;;
15151;SDS011;7676;50.900;6.234;2022-12-01T19:19:36;73.23;;;52.43;;
15151;SDS011;7676;50.900;6.234;2022-12-01T19:24:38;75.47;;;52.60;;
15151;SDS011;7676;50.900;6.234;2022-12-01T19:29:41;71.40;;;50.77;;
15151;SDS011;7676;50.900;6.234;2022-12-01T19:34:48;72.37;;;50.57;;
15151;SDS011;7676;50.900;6.234;2022-12-01T19:39:51;78.07;;;52.07;;
15151;SDS011;7676;50.900;6.234;2022-12-01T19:44:54;71.13;;;51.20;;
15151;SDS011;7676;50.900;6.234;2022-12-01T19:49:57;71.63;;;50.00;;
15151;SDS011;7676;50.900;6.234;2022-12-01T19:54:59;72.27;;;51.20;;
15151;SDS011;7676;50.900;6.234;2022-12-01T20:00:02;72.83;;;52.50;;
15151;SDS011;7676;50.900;6.234;2022-12-01T20:05:12;77.17;;;54.17;;
15151;SDS011;7676;50.900;6.234;2022-12-01T20:10:15;76.03;;;54.67;;
15151;SDS011;7676;50.900;6.234;2022-12-01T20:15:21;77.63;;;57.87;;
15151;SDS011;7676;50.900;6.234;2022-12-01T20:20:24;74.90;;;53.63;;
15151;SDS011;7676;50.900;6.234;2022-12-01T20:25:26;80.47;;;55.70;;
15151;SDS011;7676;50.900;6.234;2022-12-01T20:30:29;75.77;;;58.50;;
15151;SDS011;7676;50.900;6.234;2022-12-01T20:35:34;80.43;;;58.40;;
15151;SDS011;7676;50.900;6.234;2022-12-01T20:40:40;72.17;;;54.50;;
15151;SDS011;7676;50.900;6.234;2022-12-01T20:45:43;74.27;;;56.30;;
15151;SDS011;7676;50.900;6.234;2022-12-01T20:50:46;79.10;;;57.17;;
15151;SDS011;7676;50.900;6.234;2022-12-01T20:55:48;73.43;;;56.87;;
15151;SDS011;7676;50.900;6.234;2022-12-01T21:00:51;79.03;;;63.38;;
15151;SDS011;7676;50.900;6.234;2022-12-01T21:05:55;80.00;;;59.20;;
15151;SDS011;7676;50.900;6.234;2022-12-01T21:11:02;73.50;;;57.10;;
15151;SDS011;7676;50.900;6.234;2022-12-01T21:21:23;75.50;;;56.17;;
15151;SDS011;7676;50.900;6.234;2022-12-01T21:26:28;74.00;;;54.27;;
15151;SDS011;7676;50.900;6.234;2022-12-01T21:31:31;73.23;;;53.63;;
15151;SDS011;7676;50.900;6.234;2022-12-01T21:36:33;72.63;;;51.37;;
15151;SDS011;7676;50.900;6.234;2022-12-01T21:41:36;69.63;;;52.87;;
15151;SDS011;7676;50.900;6.234;2022-12-01T21:46:39;67.30;;;49.43;;
15151;SDS011;7676;50.900;6.234;2022-12-01T21:51:44;73.50;;;50.43;;
15151;SDS011;7676;50.900;6.234;2022-12-01T21:56:54;69.60;;;50.40;;
15151;SDS011;7676;50.900;6.234;2022-12-01T22:01:59;72.53;;;52.10;;
15151;SDS011;7676;50.900;6.234;2022-12-01T22:07:03;72.57;;;51.70;;
15151;SDS011;7676;50.900;6.234;2022-12-01T22:17:29;67.23;;;48.00;;
15151;SDS011;7676;50.900;6.234;2022-12-01T22:22:33;61.63;;;45.23;;
15151;SDS011;7676;50.900;6.234;2022-12-01T22:27:40;57.97;;;42.47;;
15151;SDS011;7676;50.900;6.234;2022-12-01T22:32:48;47.77;;;34.57;;
15151;SDS011;7676;50.900;6.234;2022-12-01T22:43:23;44.77;;;31.17;;
15151;SDS011;7676;50.900;6.234;2022-12-01T22:53:29;42.90;;;31.67;;
15151;SDS011;7676;50.900;6.234;2022-12-01T22:58:33;41.53;;;31.07;;
15151;SDS011;7676;50.900;6.234;2022-12-01T23:03:40;43.10;;;30.47;;
15151;SDS011;7676;50.900;6.234;2022-12-01T23:08:43;38.67;;;29.90;;
15151;SDS011;7676;50.900;6.234;2022-12-01T23:13:45;42.10;;;29.80;;
15151;SDS011;7676;50.900;6.234;2022-12-01T23:18:47;42.47;;;29.73;;
15151;SDS011;7676;50.900;6.234;2022-12-01T23:23:50;44.20;;;30.20;;
15151;SDS011;7676;50.900;6.234;2022-12-01T23:28:54;39.47;;;28.20;;
15151;SDS011;7676;50.900;6.234;2022-12-01T23:33:59;38.77;;;27.83;;
15151;SDS011;7676;50.900;6.234;2022-12-01T23:39:03;36.30;;;26.50;;
15151;SDS011;7676;50.900;6.234;2022-12-01T23:44:34;35.07;;;25.53;;
15151;SDS011;7676;50.900;6.234;2022-12-01T23:49:41;39.87;;;27.83;;
15151;SDS011;7676;50.900;6.234;2022-12-01T23:54:46;38.77;;;27.87;;
15151;SDS011;7676;50.900;6.234;2022-12-01T23:59:52;36.20;;;26.63;;
